Flight Track Log - Related Links

Times and Time Zones

All times are in EST time to prevent confusion due to time zone crossing. See the BJS618 flight status page for this flight to view local times or setup timezone preferences in your user account.

Time Position Orientation Groundspeed Altitude Reporting Facility
EST Latitude Longitude Course Direction KTS MPH feet Rate Location/Type
Tue 12:36:45 AM 36.5833 -121.7833 67° East 184 212 3,100  Level Northern Cal TRACON
Tue 12:37:39 AM 36.6000 -121.7333 67° East 225 259 6,100 3,282 Climbing Northern Cal TRACON
Tue 12:39:35 AM 36.5333 -121.6011 122° Southeast 271 312 12,400 3,288 Climbing Oakland Center
Tue 12:40:36 AM 36.4872 -121.5100 122° Southeast 307 353 15,800 3,246 Climbing Oakland Center
Tue 12:41:37 AM 36.4372 -121.4169 124° Southeast 321 369 19,000 3,443 Climbing Oakland Center
Tue 12:42:38 AM 36.3775 -121.3178 127° Southeast 357 411 22,800 3,000 Climbing Oakland Center
Tue 12:43:39 AM 36.3103 -121.2211 131° Southeast 370 426 25,100 2,016 Climbing Oakland Center
Tue 12:44:40 AM 36.2261 -121.0936 129° Southeast 399 459 26,900 934 Climbing Oakland Center
Tue 12:45:41 AM 36.1533 -120.9794 128° Southeast 420 483 27,000 50 Climbing Oakland Center
Tue 12:46:41 AM 36.0781 -120.8658 129° Southeast 428 493 27,000  Level Oakland Center
Tue 12:47:42 AM 36.0028 -120.7528 129° Southeast 427 491 27,000  Level Oakland Center
Tue 12:48:43 AM 35.9269 -120.6367 129° Southeast 433 498 27,000  Level Oakland Center
Tue 12:49:44 AM 35.8511 -120.5222 129° Southeast 433 498 27,000  Level Oakland Center
Tue 12:50:44 AM 35.7739 -120.4069 130° Southeast 434 499 27,000  Level Oakland Center
Tue 12:51:45 AM 35.6972 -120.2906 129° Southeast 435 501 27,000  Level Oakland Center
Tue 12:52:46 AM 35.6022 -120.1994 142° Southeast 437 503 27,000  Level Oakland Center
Tue 12:53:47 AM 35.5039 -120.1153 145° Southeast 426 490 27,000  Level Oakland Center
Tue 12:54:48 AM 35.4047 -120.0314 145° Southeast 427 491 27,000  Level Oakland Center
Tue 12:55:48 AM 35.3069 -119.9483 145° Southeast 424 488 27,000  Level Oakland Center
Tue 12:56:49 AM 35.2097 -119.8653 145° Southeast 425 489 27,000  Level Oakland Center
Tue 12:57:50 AM 35.1122 -119.7817 145° Southeast 425 489 27,000  Level Oakland Center
Tue 12:58:51 AM 35.0150 -119.7000 145° Southeast 425 489 27,000  Level Oakland Center
Tue 12:59:53 AM 34.9178 -119.6175 145° Southeast 425 489 27,000  Level Oakland Center
Tue 01:00:53 AM 34.8194 -119.5347 145° Southeast 428 493 27,000 -149 Level Oakland Center
Tue 01:01:54 AM 34.7289 -119.4419 140° Southeast 432 497 26,700 -683 Descending Oakland Center
Tue 01:02:56 AM 34.6589 -119.3303 127° Southeast 421 484 25,600 -1,581 Descending Oakland Center
Tue 01:04:22 AM 34.5453 -119.1611 129° Southeast 413 475 22,800 -2,204 Descending Los Angeles Center
Tue 01:05:23 AM 34.4756 -119.0572 129° Southeast 398 458 20,200 -2,459 Descending Los Angeles Center
Tue 01:06:24 AM 34.4103 -118.9581 129° Southeast 378 435 17,800 -2,213 Descending Los Angeles Center
Tue 01:07:25 AM 34.3378 -118.8744 136° Southeast 365 420 15,700 -2,213 Descending Los Angeles Center
Tue 01:08:26 AM 34.2458 -118.8400 163° South 346 398 13,300 -2,083 Descending Los Angeles Center
Tue 01:09:26 AM 34.1586 -118.8089 164° South 326 375 11,500 -1,636 Descending Los Angeles Center
Tue 01:10:27 AM 34.0642 -118.7725 162° South 321 369 10,000 -738 Descending Los Angeles Center
Tue 01:11:28 AM 34.0322 -118.6906 115° Southeast 276 318 10,000  Level Los Angeles Center
Tue 01:12:29 AM 34.0256 -118.6089 96° East 247 284 10,000 -541 Level Los Angeles Center
Tue 01:13:30 AM 34.0172 -118.5328 98° East 231 266 8,900 -1,180 Descending Los Angeles Center
Tue 01:14:31 AM 34.0103 -118.4592 96° East 222 255 7,600 -1,279 Descending Los Angeles Center
Tue 01:15:32 AM 34.0217 -118.3900 79° East 204 235 6,300 -1,279 Descending Los Angeles Center
Tue 01:16:33 AM 34.0311 -118.3278 80° East 193 222 5,000 -1,033 Descending Los Angeles Center
Tue 01:17:34 AM 34.0403 -118.2656 80° East 188 216 4,200 -590 Descending Los Angeles Center
Tue 01:18:35 AM 34.0228 -118.2178 114° Southeast 193 222 3,800 -639 Descending Los Angeles Center
Tue 01:19:36 AM 33.9722 -118.2128 175° South 184 212 2,900 -787 Descending Los Angeles Center
Tue 01:20:37 AM 33.9481 -118.2592 238° Southwest 177 204 2,200 -744 Descending Los Angeles Center
Tue 01:21:37 AM 33.9450 -118.3114 266° West 166 191 1,400 -793 Descending Los Angeles Center
Tue 01:22:38 AM 33.9408 -118.3558 264° West 150 173 600 -787 Descending Los Angeles Center
Tue 01:25:00 AM 33.9333 -118.4000 228° Southwest  Level FlightAware Approximate

Login

Don't have an account? Register now (free) for customized features, flight alerts, and more!